LEZGLEPP

Guest
Details From LEZG - Zaragoza Ab
To LEPP - Pamplona
Flight Number -
Tags Generated
Created
Modified
Stats Distance 72 nm / 133 km
Max Altitude 0 ft / 0 m
Waypoints 2
Social Downloads 0
Likes 0
Share VATSIM

Download

Looking for another format? Having issues loading an existing format? Contact us
Advertisement - Login to hide

Notes

Generated

Route

LEZG LEPP

ID Type Via Altitude Latitude Longitude Leg Dist Tot Dist Heading (true) Name
O LEZG APT - 0 ft / 0 m 41.66906˚ -1.03983˚ - 0 nm - Zaragoza AB
O LEPP APT - 0 ft / 0 m 42.77954˚ -1.65325˚ 72 nm 72 nm 338° / 338° -

Altitude Profile

Advertisement - Login to hide

LEZG

Details ICAO LEZG (ZAZ)
Name Zaragoza AB
Region Spain
Timezone Europe/Madrid (UTC+2.0)
Stats Elevation 862 ft / 263 m (AMSL)
Location 41.667030° -1.043559°
Runways 2
Magnetic Variation 0.042° E

METAR

LEZG 272135Z 29012KT 260V320 9999 TS SCT060CB 18/15 Q1013

Decode

TAF

TAF LEZG 271700Z 2718/2818 25012KT 9999 SCT020 TX21/2814Z TN16/2806Z TEMPO 2718/2812 FEW030TCU BKN040 PROB30 TEMPO 2718/2722 29012G25KT TEMPO 2718/2803 3000 TSRA FEW030CB BECMG 2722/2724 30006KT TEMPO 2810/2812 3000 SHRA FEW020TCU BKN030

Decode

Departure Runways

ID Width Length Bearing (true) Bearing (mag) Surface Threshold Offset Overrun Length
12L 148 ft / 45 m 9,934 ft / 3,028 m 120.12° 120.08° Asphalt 0 ft / 0 m 984 ft / 300 m
12R 148 ft / 45 m 12,181 ft / 3,713 m 120.10° 120.06° Asphalt 0 ft / 0 m 984 ft / 300 m
30L 148 ft / 45 m 12,181 ft / 3,713 m 300.12° 300.08° Asphalt 0 ft / 0 m 984 ft / 300 m
30R 148 ft / 45 m 9,934 ft / 3,028 m 300.14° 300.10° Asphalt 0 ft / 0 m 607 ft / 185 m

LEPP

Details ICAO LEPP (PNA)
Name Pamplona
Region Spain
Timezone Europe/Madrid (UTC+2.0)
Stats Elevation 1,503 ft / 458 m (AMSL)
Location 42.770831° -1.646876°
Runways 2
Magnetic Variation 0.172° W

METAR

LEPP 272130Z 33012KT 300V360 9999 FEW010 SCT016 BKN028 15/13 Q1016

Decode

TAF

TAF LEPP 272000Z 2721/2821 35014KT 9000 SCT015 SCT025 TX18/2814Z TN12/2803Z TEMPO 2721/2821 BKN014 PROB40 TEMPO 2723/2821 4000 -SHRA BKN010 SCT025TCU PROB40 TEMPO 2804/2809 VRB04KT 1400 RA BCFG BKN005

Decode

Destination Runways

ID Width Length Bearing (true) Bearing (mag) Surface Threshold Offset Overrun Length
15 148 ft / 45 m 7,192 ft / 2,192 m 151.64° 151.81° Asphalt 0 ft / 0 m 0 ft / 0 m
16 148 ft / 45 m 7,245 ft / 2,208 m 151.86° 152.03° Asphalt 0 ft / 0 m 0 ft / 0 m
33 148 ft / 45 m 7,192 ft / 2,192 m 331.65° 331.82° Asphalt 984 ft / 300 m 656 ft / 200 m
34 148 ft / 45 m 7,245 ft / 2,208 m 331.86° 332.03° Asphalt 984 ft / 300 m 0 ft / 0 m

Approach Navaids

Runway Type Ident Frequency Range Bearing (true) Bearing (mag) Slope Elevation
16 Localiser IPN 109.70 MHz 18 nm / 33 km 151.86° 152.03° - 1,503 ft / 458 m (AMSL)
16 Glidescope IPN 109.70 MHz 10 nm / 19 km 151.86° 152.03° 3.40° 1,503 ft / 458 m (AMSL)
16 DME IPN 109.70 MHz 18 nm / 33 km - - - 1,470 ft / 448 m (AMSL)

Popular Alternatives